CYLWCYWL

Guest
Details From CYLW - Kelowna
To CYWL - WILLIAMS LAKE
Flight Number -
Tags generated
Created
Modified
Stats Distance 168 nm / 311 km
Max Altitude 18,700 ft / 5,700 m
Waypoints 4
Social Downloads 0
Likes 0
Share VATSIM

Download

Looking for another format? Having issues loading an existing format? Contact us
Advertisement - Login to hide

Notes

Basic altitude profile: - Ascent Rate: 2500ft/min - Ascent Speed: 250kts - Cruise Altitude: 35000ft - Cruise Speed: 420kts - Descent Rate: 1500ft/min - Descent Speed: 250kts Options: - Use NATs: yes - Use PACOTS: yes - Use low airways: yes - Use high airways: yes

Route

CYLW AFINS B8 WL CYWL

ID Type Via Altitude Latitude Longitude Leg Dist Tot Dist Heading (true) Name
O CYLW APT - 0 ft / 0 m 49.95612˚ -119.37776˚ - 0 nm - Kelowna
AFINS FIX - 18,700 ft / 5,700 m 51.00167˚ -120.68639˚ 80 nm 80 nm 322° / 321° -
WL NDB B8 (AWY-LO) 8,700 ft / 2,652 m 52.13667˚ -121.97333˚ 83 nm 163 nm 325° / 324° WILLIAMS LAKE NDB
O CYWL APT - 0 ft / 0 m 52.18250˚ -122.05348˚ 4 nm 167 nm 313° / 313° WILLIAMS LAKE

Altitude Profile

Advertisement - Login to hide

Weather


0- 5 10 15 20 25 30 35+ Temperature / ° C

Clouds and Precipitation
Forecast for 2017-12-11 00:00 UTC. Updated an hour ago

Ground ~20,000 ft ~40,000 ft Winds

CYLW

Details ICAO CYLW (YLW)
Name Kelowna
Region Canada
Timezone America/Vancouver (UTC-8.0)
Stats Elevation 1,409 ft / 429 m (AMSL)
Location 49.956117° -119.377757°
Runways 1
Magnetic Variation 15.635° E

METAR

CYLW 110000Z AUTO 18005KT 9SM OVC024 00/M03 A3063 RMK SLP394

Decode

TAF

TAF CYLW 101838Z 1019/1107 15005KT P6SM SCT025 TEMPO 1019/1101 BKN020 FM110100 VRB03KT P6SM BKN025 TEMPO 1101/1107 OVC020 RMK FCST BASED ON AUTO OBS. NXT FCST BY 110100Z

Decode

Departure Runways

ID Width Length Bearing (true) Bearing (mag) Surface Threshold Offset Overrun Length
16 200 ft / 61 m 7,299 ft / 2,225 m 174.89° 159.26° Asphalt 0 ft / 0 m 0 ft / 0 m
34 200 ft / 61 m 7,299 ft / 2,225 m 354.89° 339.26° Asphalt 0 ft / 0 m 0 ft / 0 m

CYWL

Details ICAO CYWL (YWL)
Name WILLIAMS LAKE
Region Canada
Timezone America/Vancouver (UTC-8.0)
Stats Elevation 3,085 ft / 940 m (AMSL)
Location 52.182502° -122.053475°
Runways 1
Magnetic Variation 16.808° E

METAR

CYWL 110000Z 12006KT 15SM BKN250 M01/M07 A3041 RMK CI7 SLP343

Decode

TAF

TAF CYWL 101844Z 1019/1107 13006KT P6SM FEW220 RMK NXT FCST BY 110100Z

Decode

Destination Runways

ID Width Length Bearing (true) Bearing (mag) Surface Threshold Offset Overrun Length
11 150 ft / 46 m 6,913 ft / 2,107 m 134.72° 117.91° Asphalt 0 ft / 0 m 300 ft / 91 m
29 150 ft / 46 m 6,913 ft / 2,107 m 314.74° 297.93° Asphalt 0 ft / 0 m 300 ft / 91 m